Time;durP1;ratioP1;P1;durP2;ratioP2;P2;SDS_P1;SDS_P2;PMS_P1;PMS_P2;Temp;Humidity;BMP_temperature;BMP_pressure;BME280_temperature;BME280_humidity;BME280_pressure;Samples;Min_cycle;Max_cycle;Signal;HPM_P1;HPM_P2
2022/11/13 00:00:51;;;;;;;;;66.00;51.00;;;;;;;;4979450;28;45371;-63
2022/11/13 00:03:16;;;;;;;;;57.67;45.33;;;;;;;;4979766;28;45315;-63
2022/11/13 00:05:41;;;;;;;;;64.67;47.00;;;;;;;;4979209;28;45427;-63
2022/11/13 00:08:07;;;;;;;;;59.67;46.00;;;;;;;;4979266;28;45419;-63
2022/11/13 00:10:32;;;;;;;;;55.00;45.00;;;;;;;;4979352;28;45429;-63
2022/11/13 00:12:57;;;;;;;;;59.00;45.00;;;;;;;;4979411;28;45379;-63
2022/11/13 00:15:22;;;;;;;;;56.33;45.33;;;;;;;;4979054;28;46507;-63
2022/11/13 00:17:47;;;;;;;;;53.33;42.33;;;;;;;;4979009;28;45403;-63
2022/11/13 00:20:13;;;;;;;;;61.00;47.67;;;;;;;;4979299;28;45344;-63
2022/11/13 00:22:38;;;;;;;;;59.33;45.33;;;;;;;;4978236;28;45394;-63
2022/11/13 00:25:03;;;;;;;;;56.00;44.00;;;;;;;;4978618;28;45438;-63
2022/11/13 00:27:29;;;;;;;;;55.33;43.00;;;;;;;;4978633;28;45351;-63
2022/11/13 00:29:54;;;;;;;;;54.33;40.33;;;;;;;;4978988;28;45422;-63
2022/11/13 00:32:20;;;;;;;;;52.33;43.00;;;;;;;;4979080;28;45550;-63
2022/11/13 00:34:45;;;;;;;;;53.00;39.33;;;;;;;;4978691;28;47530;-63
2022/11/13 00:37:10;;;;;;;;;55.33;42.67;;;;;;;;4978948;28;45409;-63
2022/11/13 00:39:35;;;;;;;;;52.33;38.00;;;;;;;;4978904;28;45401;-63
2022/11/13 00:42:01;;;;;;;;;53.00;43.33;;;;;;;;4978788;28;45441;-63
2022/11/13 00:44:26;;;;;;;;;55.00;43.00;;;;;;;;4978699;28;46338;-63
2022/11/13 00:46:51;;;;;;;;;52.67;42.33;;;;;;;;4978527;28;45314;-63
2022/11/13 00:49:16;;;;;;;;;54.67;40.33;;;;;;;;4978872;28;45354;-63
2022/11/13 00:51:42;;;;;;;;;30.00;30.00;;;;;;;;4978723;28;45366;-63
2022/11/13 00:54:07;;;;;;;;;56.67;44.67;;;;;;;;4978547;28;45348;-63
2022/11/13 00:56:32;;;;;;;;;53.33;42.33;;;;;;;;4978518;28;45375;-63
2022/11/13 00:58:57;;;;;;;;;51.00;41.33;;;;;;;;4978577;28;45415;-63
2022/11/13 01:01:22;;;;;;;;;58.00;45.33;;;;;;;;4978783;28;45459;-63
2022/11/13 01:03:48;;;;;;;;;49.33;40.33;;;;;;;;4978312;28;45556;-63
2022/11/13 01:06:23;;;;;;;;;51.67;42.67;;;;;;;;4978261;28;45288;-63
2022/11/13 01:08:48;;;;;;;;;39.67;36.00;;;;;;;;4978397;28;45327;-63
2022/11/13 01:11:18;;;;;;;;;59.67;47.00;;;;;;;;4978381;28;45370;-63
2022/11/13 01:13:45;;;;;;;;;60.33;45.00;;;;;;;;4961110;28;46268;-63
2022/11/13 01:16:11;;;;;;;;;56.00;43.00;;;;;;;;4978169;28;45441;-63
2022/11/13 01:18:37;;;;;;;;;44.67;40.00;;;;;;;;4978286;28;45390;-63
2022/11/13 01:21:05;;;;;;;;;55.33;43.00;;;;;;;;4978312;28;45313;-63
2022/11/13 01:23:31;;;;;;;;;54.00;40.33;;;;;;;;4977932;28;47441;-63
2022/11/13 01:26:03;;;;;;;;;54.00;39.67;;;;;;;;4977968;28;45346;-64
2022/11/13 01:28:28;;;;;;;;;50.33;38.00;;;;;;;;4978050;28;45227;-63
2022/11/13 01:30:53;;;;;;;;;53.00;42.00;;;;;;;;4978188;28;45432;-63
2022/11/13 01:33:18;;;;;;;;;55.33;40.67;;;;;;;;4977825;28;45519;-63
2022/11/13 01:35:43;;;;;;;;;61.00;44.00;;;;;;;;4977455;28;45356;-63
2022/11/13 01:38:09;;;;;;;;;50.00;39.00;;;;;;;;4977985;28;45405;-63
2022/11/13 01:40:34;;;;;;;;;56.33;42.00;;;;;;;;4978195;28;45361;-63
2022/11/13 01:43:10;;;;;;;;;45.67;39.67;;;;;;;;4977667;28;45731;-63
2022/11/13 01:45:54;;;;;;;;;56.67;43.67;;;;;;;;4977792;28;45815;-63
2022/11/13 01:48:19;;;;;;;;;47.67;37.00;;;;;;;;4977618;28;45464;-63
2022/11/13 01:50:44;;;;;;;;;53.00;39.00;;;;;;;;4978012;28;45473;-63
2022/11/13 01:53:10;;;;;;;;;44.00;37.33;;;;;;;;4977593;28;46358;-63
2022/11/13 01:55:35;;;;;;;;;47.00;37.00;;;;;;;;4977766;28;45256;-63
2022/11/13 01:58:01;;;;;;;;;49.33;37.33;;;;;;;;4977602;28;45486;-63
2022/11/13 02:00:26;;;;;;;;;52.00;40.67;;;;;;;;4977736;28;45389;-63
2022/11/13 02:02:51;;;;;;;;;45.33;35.00;;;;;;;;4977636;28;46409;-63
2022/11/13 02:05:17;;;;;;;;;45.00;37.33;;;;;;;;4977626;28;45214;-63
2022/11/13 02:07:42;;;;;;;;;44.33;37.00;;;;;;;;4977599;28;45582;-63
2022/11/13 02:10:07;;;;;;;;;48.00;37.00;;;;;;;;4977657;28;45461;-63
2022/11/13 02:12:35;;;;;;;;;42.00;36.00;;;;;;;;4977194;28;46588;-63
2022/11/13 02:15:03;;;;;;;;;46.00;39.00;;;;;;;;4977523;28;45419;-63
2022/11/13 02:17:35;;;;;;;;;50.00;39.00;;;;;;;;4977391;28;45409;-63
2022/11/13 02:20:01;;;;;;;;;51.00;37.33;;;;;;;;4977475;28;45539;-63
2022/11/13 02:22:26;;;;;;;;;51.00;42.33;;;;;;;;4977124;28;47014;-63
2022/11/13 02:24:51;;;;;;;;;45.00;36.67;;;;;;;;4977313;28;45291;-63
2022/11/13 02:27:22;;;;;;;;;45.67;35.67;;;;;;;;4977199;28;45310;-63
2022/11/13 02:29:47;;;;;;;;;49.67;38.33;;;;;;;;4977534;28;45529;-63
2022/11/13 02:32:12;;;;;;;;;38.33;34.67;;;;;;;;4977076;28;46676;-63
2022/11/13 02:34:37;;;;;;;;;43.33;37.33;;;;;;;;4977411;28;45298;-63
2022/11/13 02:37:03;;;;;;;;;41.33;35.67;;;;;;;;4977298;28;45597;-63
2022/11/13 02:39:28;;;;;;;;;48.67;35.33;;;;;;;;4977434;28;45861;-63
2022/11/13 02:41:53;;;;;;;;;41.00;36.00;;;;;;;;4976966;28;46469;-63
2022/11/13 02:44:18;;;;;;;;;47.00;35.33;;;;;;;;4977015;28;45321;-63
2022/11/13 02:46:43;;;;;;;;;44.67;36.33;;;;;;;;4978172;28;45353;-63
2022/11/13 02:49:09;;;;;;;;;48.33;37.00;;;;;;;;4980680;28;45442;-63
2022/11/13 02:51:34;;;;;;;;;48.33;40.00;;;;;;;;4980418;28;46401;-63
2022/11/13 02:53:59;;;;;;;;;42.00;36.00;;;;;;;;4980420;28;45291;-63
2022/11/13 02:56:25;;;;;;;;;49.00;38.67;;;;;;;;4980592;28;45295;-63
2022/11/13 02:58:50;;;;;;;;;47.00;36.00;;;;;;;;4980660;28;45327;-62
2022/11/13 03:01:15;;;;;;;;;46.00;36.67;;;;;;;;4980176;28;46675;-63
2022/11/13 03:03:40;;;;;;;;;50.33;37.67;;;;;;;;4980337;28;45354;-63
2022/11/13 03:06:06;;;;;;;;;49.33;35.67;;;;;;;;4980499;28;45443;-63
2022/11/13 03:08:31;;;;;;;;;48.67;36.67;;;;;;;;4980326;28;45338;-63
2022/11/13 03:10:56;;;;;;;;;41.33;37.00;;;;;;;;4979954;28;45611;-63
2022/11/13 03:13:21;;;;;;;;;45.33;38.00;;;;;;;;4979960;28;45648;-63
2022/11/13 03:15:46;;;;;;;;;50.00;36.33;;;;;;;;4980320;28;45464;-63
2022/11/13 03:18:12;;;;;;;;;42.00;35.33;;;;;;;;4980338;28;45528;-63
2022/11/13 03:20:39;;;;;;;;;45.00;37.33;;;;;;;;4979843;28;45442;-63
2022/11/13 03:23:04;;;;;;;;;40.33;37.67;;;;;;;;4980020;28;45327;-63
2022/11/13 03:25:30;;;;;;;;;39.67;33.00;;;;;;;;4979932;28;45313;-63
2022/11/13 03:27:55;;;;;;;;;44.67;36.00;;;;;;;;4980132;28;45429;-63
2022/11/13 03:30:20;;;;;;;;;46.33;35.00;;;;;;;;4979748;28;45519;-63
2022/11/13 03:32:45;;;;;;;;;46.33;38.67;;;;;;;;4979827;28;45401;-63
2022/11/13 03:35:11;;;;;;;;;37.33;30.00;;;;;;;;4979837;28;45323;-63
2022/11/13 03:37:36;;;;;;;;;49.33;35.00;;;;;;;;4980048;28;45301;-63
2022/11/13 03:40:01;;;;;;;;;43.67;36.00;;;;;;;;4979781;28;45302;-63
2022/11/13 03:42:26;;;;;;;;;47.67;38.00;;;;;;;;4979598;28;45524;-63
2022/11/13 03:44:52;;;;;;;;;48.67;39.67;;;;;;;;4979671;28;45381;-63
2022/11/13 03:47:17;;;;;;;;;45.67;37.00;;;;;;;;4979690;28;45673;-63
2022/11/13 03:49:42;;;;;;;;;37.67;33.67;;;;;;;;4979415;28;45430;-63
2022/11/13 03:52:07;;;;;;;;;46.33;34.33;;;;;;;;4979468;28;45344;-63
2022/11/13 03:54:33;;;;;;;;;44.33;36.33;;;;;;;;4979609;28;45343;-63
2022/11/13 03:56:58;;;;;;;;;46.50;37.00;;;;;;;;4979487;28;45432;-63
2022/11/13 03:59:23;;;;;;;;;41.00;33.67;;;;;;;;4979124;28;46502;-63
2022/11/13 04:01:48;;;;;;;;;42.33;34.67;;;;;;;;4979341;28;45445;-63
2022/11/13 04:04:14;;;;;;;;;42.67;36.67;;;;;;;;4979577;28;45295;-63
2022/11/13 04:06:39;;;;;;;;;45.67;35.67;;;;;;;;4979405;28;45309;-63
2022/11/13 04:09:05;;;;;;;;;36.67;33.67;;;;;;;;4979197;28;46305;-63
2022/11/13 04:11:30;;;;;;;;;36.67;34.00;;;;;;;;4979165;28;45397;-63
2022/11/13 04:13:56;;;;;;;;;46.33;34.67;;;;;;;;4979051;28;45406;-63
2022/11/13 04:16:21;;;;;;;;;39.33;36.33;;;;;;;;4979565;28;45311;-63
2022/11/13 04:18:46;;;;;;;;;49.33;37.33;;;;;;;;4979144;28;45555;-63
2022/11/13 04:21:11;;;;;;;;;38.33;34.00;;;;;;;;4979187;28;45519;-63
2022/11/13 04:23:36;;;;;;;;;39.67;33.00;;;;;;;;4979125;28;45278;-63
2022/11/13 04:26:02;;;;;;;;;30.67;30.00;;;;;;;;4979383;28;45284;-63
2022/11/13 04:28:27;;;;;;;;;45.00;37.00;;;;;;;;4978690;28;45465;-63
2022/11/13 04:30:53;;;;;;;;;48.33;37.33;;;;;;;;4978859;28;45557;-63
2022/11/13 04:33:18;;;;;;;;;49.67;35.67;;;;;;;;4979258;28;45449;-63
2022/11/13 04:35:44;;;;;;;;;41.33;34.67;;;;;;;;4979046;28;45739;-63
2022/11/13 04:38:11;;;;;;;;;39.67;35.33;;;;;;;;4978782;28;45557;-63
2022/11/13 04:40:36;;;;;;;;;37.67;34.00;;;;;;;;4978716;28;45491;-63
2022/11/13 04:43:02;;;;;;;;;43.00;34.00;;;;;;;;4978882;28;45493;-63
2022/11/13 04:45:27;;;;;;;;;49.00;39.00;;;;;;;;4979059;28;45507;-63
2022/11/13 04:47:52;;;;;;;;;40.67;34.67;;;;;;;;4978270;28;46874;-63
2022/11/13 04:50:18;;;;;;;;;38.00;32.33;;;;;;;;4978750;28;45366;-63
2022/11/13 04:52:44;;;;;;;;;43.67;35.33;;;;;;;;4978533;28;45393;-63
2022/11/13 04:55:09;;;;;;;;;49.67;37.67;;;;;;;;4978833;28;45374;-63
2022/11/13 04:57:35;;;;;;;;;43.00;35.33;;;;;;;;4978545;28;45426;-63
2022/11/13 05:00:00;;;;;;;;;37.67;33.67;;;;;;;;4978361;28;45287;-63
2022/11/13 05:02:26;;;;;;;;;40.33;33.33;;;;;;;;4978730;28;45489;-63
2022/11/13 05:04:51;;;;;;;;;40.67;34.00;;;;;;;;4978576;28;45377;-63
2022/11/13 05:07:16;;;;;;;;;41.00;33.67;;;;;;;;4978287;28;45528;-63
2022/11/13 05:09:41;;;;;;;;;40.67;35.00;;;;;;;;4977726;28;45315;-63
2022/11/13 05:12:07;;;;;;;;;79.75;63.75;;;;;;;;4978343;28;45326;-63
2022/11/13 05:14:34;;;;;;;;;51.33;43.00;;;;;;;;4978498;28;45424;-63
2022/11/13 05:16:59;;;;;;;;;51.00;41.00;;;;;;;;4978070;28;46263;-63
2022/11/13 05:19:24;;;;;;;;;36.00;32.33;;;;;;;;4978082;28;45298;-63
2022/11/13 05:21:49;;;;;;;;;47.00;35.67;;;;;;;;4978475;28;45329;-63
2022/11/13 05:24:14;;;;;;;;;46.00;36.67;;;;;;;;4978282;28;45404;-63
2022/11/13 05:26:40;;;;;;;;;35.00;31.00;;;;;;;;4978063;28;46543;-63
2022/11/13 05:29:05;;;;;;;;;41.33;34.00;;;;;;;;4977780;28;45421;-63
2022/11/13 05:31:31;;;;;;;;;17.00;8.67;;;;;;;;4978065;28;45441;-63
2022/11/13 05:33:56;;;;;;;;;0.00;0.00;;;;;;;;4978500;28;45422;-63
2022/11/13 05:36:21;;;;;;;;;39.33;34.00;;;;;;;;4977732;28;46493;-63
2022/11/13 05:38:47;;;;;;;;;32.67;29.33;;;;;;;;4978011;28;45450;-63
2022/11/13 05:41:16;;;;;;;;;40.67;34.00;;;;;;;;4978073;28;45177;-63
2022/11/13 05:43:42;;;;;;;;;42.67;34.33;;;;;;;;4978060;28;45436;-63
2022/11/13 05:46:12;;;;;;;;;40.00;35.00;;;;;;;;4977662;28;46213;-63
2022/11/13 05:48:38;;;;;;;;;41.33;34.67;;;;;;;;4977587;28;45327;-63
2022/11/13 05:51:04;;;;;;;;;40.33;35.67;;;;;;;;4977793;28;45253;-63
2022/11/13 05:53:32;;;;;;;;;38.33;32.33;;;;;;;;4977833;28;45377;-63
2022/11/13 05:56:05;;;;;;;;;46.67;35.67;;;;;;;;4977445;28;46626;-63
2022/11/13 05:58:30;;;;;;;;;46.67;35.67;;;;;;;;4977469;28;45468;-63
2022/11/13 06:01:05;;;;;;;;;39.00;31.33;;;;;;;;4977604;28;45333;-63
2022/11/13 06:03:30;;;;;;;;;42.67;32.33;;;;;;;;4977766;28;45486;-62
2022/11/13 06:05:56;;;;;;;;;43.00;35.67;;;;;;;;4977475;28;46255;-62
2022/11/13 06:08:21;;;;;;;;;37.33;30.67;;;;;;;;4977421;28;45438;-63
2022/11/13 06:10:47;;;;;;;;;52.67;44.00;;;;;;;;4977509;28;45448;-63
2022/11/13 06:13:12;;;;;;;;;45.33;35.00;;;;;;;;4977732;28;45354;-63
2022/11/13 06:15:37;;;;;;;;;37.00;34.00;;;;;;;;4977165;28;46392;-63
2022/11/13 06:18:02;;;;;;;;;38.00;32.33;;;;;;;;4977504;28;45427;-63
2022/11/13 06:20:27;;;;;;;;;40.33;33.33;;;;;;;;4978229;28;45315;-63
2022/11/13 06:22:53;;;;;;;;;36.67;31.67;;;;;;;;4981179;28;45359;-63
2022/11/13 06:25:18;;;;;;;;;31.67;28.00;;;;;;;;4980813;28;45567;-63
2022/11/13 06:27:43;;;;;;;;;37.67;35.00;;;;;;;;4980688;28;45445;-63
2022/11/13 06:30:09;;;;;;;;;35.00;29.33;;;;;;;;4980928;28;45501;-63
2022/11/13 06:32:34;;;;;;;;;33.00;29.33;;;;;;;;4980929;28;45469;-63
2022/11/13 06:34:59;;;;;;;;;32.33;30.33;;;;;;;;4980719;28;45567;-63
2022/11/13 06:37:24;;;;;;;;;41.33;34.00;;;;;;;;4980650;28;45434;-63
2022/11/13 06:39:49;;;;;;;;;31.67;29.00;;;;;;;;4980493;28;45403;-63
2022/11/13 06:42:15;;;;;;;;;39.67;29.00;;;;;;;;4980672;28;45490;-63
2022/11/13 06:44:40;;;;;;;;;35.67;34.00;;;;;;;;4980218;28;45548;-63
2022/11/13 06:47:05;;;;;;;;;29.67;25.67;;;;;;;;4979783;28;45513;-63
2022/11/13 06:49:30;;;;;;;;;34.33;30.00;;;;;;;;4980722;28;45307;-63
2022/11/13 06:51:55;;;;;;;;;40.33;29.33;;;;;;;;4980377;28;45432;-63
2022/11/13 06:54:21;;;;;;;;;28.33;28.00;;;;;;;;4979688;28;47137;-64
2022/11/13 06:56:46;;;;;;;;;44.33;33.33;;;;;;;;4980418;28;45389;-63
2022/11/13 06:59:11;;;;;;;;;31.00;26.67;;;;;;;;4980486;28;45419;-63
2022/11/13 07:01:36;;;;;;;;;33.00;28.67;;;;;;;;4980556;28;45435;-63
2022/11/13 07:04:03;;;;;;;;;34.33;29.33;;;;;;;;4979717;28;45606;-64
2022/11/13 07:06:28;;;;;;;;;37.00;31.33;;;;;;;;4980318;28;45307;-64
2022/11/13 07:08:54;;;;;;;;;39.67;34.33;;;;;;;;4980174;28;45453;-64
2022/11/13 07:11:20;;;;;;;;;36.00;30.00;;;;;;;;4980282;28;45354;-63
2022/11/13 07:13:46;;;;;;;;;39.67;33.00;;;;;;;;4980080;28;46625;-64
2022/11/13 07:16:12;;;;;;;;;30.00;26.33;;;;;;;;4979605;28;45463;-63
2022/11/13 07:18:37;;;;;;;;;36.00;27.67;;;;;;;;4980305;28;45370;-63
2022/11/13 07:21:05;;;;;;;;;37.00;31.00;;;;;;;;4980259;28;45418;-63
2022/11/13 07:23:31;;;;;;;;;41.33;34.00;;;;;;;;4979435;28;46614;-63
2022/11/13 07:25:56;;;;;;;;;35.00;33.67;;;;;;;;4979942;28;45497;-63
2022/11/13 07:28:21;;;;;;;;;44.67;35.00;;;;;;;;4979955;28;45212;-64
2022/11/13 07:30:47;;;;;;;;;42.67;34.67;;;;;;;;4979966;28;45267;-64
2022/11/13 07:33:12;;;;;;;;;40.00;34.33;;;;;;;;4979007;28;45634;-63
2022/11/13 07:35:37;;;;;;;;;40.67;36.67;;;;;;;;4979479;28;45398;-63
2022/11/13 07:38:03;;;;;;;;;37.67;34.33;;;;;;;;4980136;28;45351;-63
2022/11/13 07:40:28;;;;;;;;;48.33;38.00;;;;;;;;4979907;28;45447;-63
2022/11/13 07:43:00;;;;;;;;;41.00;35.67;;;;;;;;4979766;28;45508;-64
2022/11/13 07:45:26;;;;;;;;;43.33;35.67;;;;;;;;4979423;28;45394;-63
2022/11/13 07:47:55;;;;;;;;;44.00;35.67;;;;;;;;4979167;28;45299;-64
2022/11/13 07:50:21;;;;;;;;;43.33;37.00;;;;;;;;4979986;28;45372;-64
2022/11/13 07:52:46;;;;;;;;;47.00;37.33;;;;;;;;4978656;28;46380;-64
2022/11/13 07:55:12;;;;;;;;;51.33;40.00;;;;;;;;4979460;28;45457;-64
2022/11/13 07:57:38;;;;;;;;;51.33;40.33;;;;;;;;4979336;28;45318;-64
2022/11/13 08:00:03;;;;;;;;;58.33;45.00;;;;;;;;4979678;28;45417;-64
2022/11/13 08:02:28;;;;;;;;;67.67;51.33;;;;;;;;4979254;28;46359;-63
2022/11/13 08:04:53;;;;;;;;;55.00;43.00;;;;;;;;4979374;28;45310;-63
2022/11/13 08:07:19;;;;;;;;;51.67;41.67;;;;;;;;4979512;28;45413;-64
2022/11/13 08:09:44;;;;;;;;;51.67;39.67;;;;;;;;4979523;28;45310;-64
2022/11/13 08:12:09;;;;;;;;;53.33;40.33;;;;;;;;4978669;28;45698;-64
2022/11/13 08:14:34;;;;;;;;;49.67;39.00;;;;;;;;4979324;28;45444;-64
2022/11/13 08:16:59;;;;;;;;;46.67;39.33;;;;;;;;4979144;28;45323;-64
2022/11/13 08:19:25;;;;;;;;;53.33;40.67;;;;;;;;4979531;28;45365;-64
2022/11/13 08:21:50;;;;;;;;;54.00;42.00;;;;;;;;4978485;28;45577;-64
2022/11/13 08:24:15;;;;;;;;;53.33;40.33;;;;;;;;4979066;28;45382;-64
2022/11/13 08:26:41;;;;;;;;;41.00;36.67;;;;;;;;4979448;28;45358;-64
2022/11/13 08:29:06;;;;;;;;;49.67;40.67;;;;;;;;4978954;28;45282;-64
2022/11/13 08:31:31;;;;;;;;;50.67;40.33;;;;;;;;4978907;28;46598;-64
2022/11/13 08:33:56;;;;;;;;;48.33;39.33;;;;;;;;4978949;28;45216;-63
2022/11/13 08:36:21;;;;;;;;;44.00;37.67;;;;;;;;4978992;28;45441;-64
2022/11/13 08:38:47;;;;;;;;;49.67;36.00;;;;;;;;4979295;28;45362;-64
2022/11/13 08:41:12;;;;;;;;;50.33;39.67;;;;;;;;4961008;28;45582;-63
2022/11/13 08:43:38;;;;;;;;;44.33;36.33;;;;;;;;4977890;28;45161;-64
2022/11/13 08:46:03;;;;;;;;;48.00;38.33;;;;;;;;4977918;28;45446;-63
2022/11/13 08:48:28;;;;;;;;;49.33;39.00;;;;;;;;4978422;28;45351;-63
2022/11/13 08:50:54;;;;;;;;;49.00;36.00;;;;;;;;4978176;28;46591;-63
2022/11/13 08:53:20;;;;;;;;;37.67;34.33;;;;;;;;4977952;28;45881;-64
2022/11/13 08:55:45;;;;;;;;;51.00;38.33;;;;;;;;4978286;28;45286;-64
2022/11/13 08:58:11;;;;;;;;;48.00;38.67;;;;;;;;4978650;28;45541;-63
2022/11/13 09:00:36;;;;;;;;;50.00;40.00;;;;;;;;4978106;28;45462;-64
2022/11/13 09:03:01;;;;;;;;;50.67;40.00;;;;;;;;4978249;28;45406;-63
2022/11/13 09:05:26;;;;;;;;;42.67;36.00;;;;;;;;4978604;28;45444;-63
2022/11/13 09:07:55;;;;;;;;;47.33;40.67;;;;;;;;4978611;28;45443;-63
2022/11/13 09:10:21;;;;;;;;;46.33;36.00;;;;;;;;4960550;28;46659;-64
2022/11/13 09:12:46;;;;;;;;;39.00;33.00;;;;;;;;4978157;28;45374;-64
2022/11/13 09:15:11;;;;;;;;;41.33;33.67;;;;;;;;4978557;28;45384;-64
2022/11/13 09:17:37;;;;;;;;;42.00;35.00;;;;;;;;4978318;28;45427;-64
2022/11/13 09:20:02;;;;;;;;;46.33;33.33;;;;;;;;4977869;28;46624;-64
2022/11/13 09:22:28;;;;;;;;;43.67;34.67;;;;;;;;4977581;28;45422;-64
2022/11/13 09:24:53;;;;;;;;;38.33;30.33;;;;;;;;4978240;28;45332;-64
2022/11/13 09:27:18;;;;;;;;;32.33;29.00;;;;;;;;4978410;28;45437;-64
2022/11/13 09:29:43;;;;;;;;;39.00;32.67;;;;;;;;4977947;28;46607;-64
2022/11/13 09:32:08;;;;;;;;;35.00;29.33;;;;;;;;4978082;28;45294;-64
2022/11/13 09:34:34;;;;;;;;;63.00;50.00;;;;;;;;4978188;28;45257;-64
2022/11/13 09:36:59;;;;;;;;;26.00;22.00;;;;;;;;4978108;28;45299;-64
2022/11/13 09:39:24;;;;;;;;;48.00;38.00;;;;;;;;4977824;28;45370;-64
2022/11/13 09:41:55;;;;;;;;;44.33;36.00;;;;;;;;4977436;28;45303;-64
2022/11/13 09:44:30;;;;;;;;;35.33;31.00;;;;;;;;4977626;28;45280;-64
2022/11/13 09:47:05;;;;;;;;;29.67;23.67;;;;;;;;4977907;28;45565;-64
2022/11/13 09:49:32;;;;;;;;;26.00;24.00;;;;;;;;4977657;28;45407;-64
2022/11/13 09:52:01;;;;;;;;;41.00;35.00;;;;;;;;4977476;28;45300;-64
2022/11/13 09:54:26;;;;;;;;;37.00;32.00;;;;;;;;4977803;28;45395;-64
2022/11/13 09:56:56;;;;;;;;;32.67;31.33;;;;;;;;4977417;28;45474;-63
2022/11/13 09:59:24;;;;;;;;;40.33;33.33;;;;;;;;4977395;28;45472;-63
2022/11/13 10:01:50;;;;;;;;;30.67;29.00;;;;;;;;4977198;28;45431;-64
2022/11/13 10:04:18;;;;;;;;;35.67;29.00;;;;;;;;4977469;28;45755;-64
2022/11/13 10:06:43;;;;;;;;;37.67;34.00;;;;;;;;4977900;28;45426;-63
2022/11/13 10:09:11;;;;;;;;;34.33;30.67;;;;;;;;4977196;28;46601;-65
2022/11/13 10:11:39;;;;;;;;;36.33;31.00;;;;;;;;4977250;28;45390;-64
2022/11/13 10:14:12;;;;;;;;;26.33;26.00;;;;;;;;4977494;28;45531;-64
2022/11/13 10:16:40;;;;;;;;;40.67;32.00;;;;;;;;4977313;28;45317;-64
2022/11/13 10:19:08;;;;;;;;;30.00;26.67;;;;;;;;4976577;28;46459;-63
2022/11/13 10:21:47;;;;;;;;;36.67;31.67;;;;;;;;4977390;28;45541;-63
2022/11/13 10:24:26;;;;;;;;;32.67;30.00;;;;;;;;4977428;28;45390;-63
2022/11/13 10:26:54;;;;;;;;;55.00;45.00;;;;;;;;4977442;28;45428;-63
2022/11/13 10:29:19;;;;;;;;;40.00;34.00;;;;;;;;4976992;28;46398;-63
2022/11/13 10:31:46;;;;;;;;;35.67;31.67;;;;;;;;4977294;28;45469;-63
2022/11/13 10:34:12;;;;;;;;;37.00;30.00;;;;;;;;4976998;28;45484;-64
2022/11/13 10:36:44;;;;;;;;;34.33;29.33;;;;;;;;4977584;28;45478;-64
2022/11/13 10:39:09;;;;;;;;;46.33;37.33;;;;;;;;4976907;28;45461;-63
2022/11/13 10:41:48;;;;;;;;;33.33;31.33;;;;;;;;4976991;28;45861;-64
2022/11/13 10:44:19;;;;;;;;;34.00;30.67;;;;;;;;4977339;28;45274;-64
2022/11/13 10:46:45;;;;;;;;;37.00;31.00;;;;;;;;4977281;28;45444;-63
2022/11/13 10:49:20;;;;;;;;;26.67;25.00;;;;;;;;4976491;28;45470;-64
2022/11/13 10:51:54;;;;;;;;;34.33;31.00;;;;;;;;4976516;28;45565;-63
2022/11/13 10:54:24;;;;;;;;;34.00;30.67;;;;;;;;4976884;28;45327;-63
2022/11/13 10:57:00;;;;;;;;;26.33;26.00;;;;;;;;4977089;28;45421;-63
2022/11/13 10:59:36;;;;;;;;;33.33;28.00;;;;;;;;4976671;28;46294;-63
2022/11/13 11:02:27;;;;;;;;;33.33;29.33;;;;;;;;4959142;28;45423;-64
2022/11/13 11:05:06;;;;;;;;;39.00;33.00;;;;;;;;4972776;28;45414;-63
2022/11/13 11:07:38;;;;;;;;;39.00;32.67;;;;;;;;4977862;28;45402;-63
2022/11/13 11:10:06;;;;;;;;;32.00;29.33;;;;;;;;4980091;28;45624;-64
2022/11/13 11:12:31;;;;;;;;;32.33;28.67;;;;;;;;4979124;28;45505;-63
2022/11/13 11:14:57;;;;;;;;;30.67;27.00;;;;;;;;4980440;28;45375;-63
2022/11/13 11:17:40;;;;;;;;;29.33;28.00;;;;;;;;4979832;28;45516;-64
2022/11/13 11:20:06;;;;;;;;;26.33;23.00;;;;;;;;4979828;28;46515;-63
2022/11/13 11:22:33;;;;;;;;;24.67;24.67;;;;;;;;4979615;28;45428;-63
2022/11/13 11:25:05;;;;;;;;;29.67;26.67;;;;;;;;4980151;28;45490;-63
2022/11/13 11:27:30;;;;;;;;;26.33;25.00;;;;;;;;4980036;28;45366;-64
2022/11/13 11:30:03;;;;;;;;;29.00;26.33;;;;;;;;4979576;28;46136;-63
2022/11/13 11:32:44;;;;;;;;;23.00;20.67;;;;;;;;4979796;28;45283;-63
2022/11/13 11:35:13;;;;;;;;;27.33;22.67;;;;;;;;4979696;28;45365;-63
2022/11/13 11:37:44;;;;;;;;;28.67;26.67;;;;;;;;4979833;28;45383;-64
2022/11/13 11:40:13;;;;;;;;;27.00;23.00;;;;;;;;4962122;28;46587;-63
2022/11/13 11:42:44;;;;;;;;;27.00;22.00;;;;;;;;4979576;28;45324;-63
2022/11/13 11:45:12;;;;;;;;;24.67;24.67;;;;;;;;4979713;28;45370;-63
2022/11/13 11:47:37;;;;;;;;;25.67;24.00;;;;;;;;4979381;28;45500;-63
2022/11/13 11:50:05;;;;;;;;;26.00;22.33;;;;;;;;4979216;28;46716;-63
2022/11/13 11:52:30;;;;;;;;;27.67;22.00;;;;;;;;4978497;28;45311;-63
2022/11/13 11:55:13;;;;;;;;;30.33;23.67;;;;;;;;4979821;28;45800;-63
2022/11/13 11:57:48;;;;;;;;;25.67;24.33;;;;;;;;4979513;28;45331;-63
2022/11/13 12:00:22;;;;;;;;;33.00;31.00;;;;;;;;4979097;28;47651;-63
2022/11/13 12:02:56;;;;;;;;;23.33;23.00;;;;;;;;4979223;28;45359;-63
2022/11/13 12:05:28;;;;;;;;;31.33;27.67;;;;;;;;4979594;28;45238;-63
2022/11/13 12:08:12;;;;;;;;;45.67;36.67;;;;;;;;4979402;28;45242;-63
2022/11/13 12:10:37;;;;;;;;;35.33;32.67;;;;;;;;4979187;28;46923;-63
2022/11/13 12:13:05;;;;;;;;;31.00;30.00;;;;;;;;4978398;28;45311;-63
2022/11/13 12:15:30;;;;;;;;;36.00;32.67;;;;;;;;4979084;28;45519;-63
2022/11/13 12:18:14;;;;;;;;;38.67;30.67;;;;;;;;4978961;28;45513;-63
2022/11/13 12:20:48;;;;;;;;;34.33;32.00;;;;;;;;4978094;28;47369;-63
2022/11/13 12:23:13;;;;;;;;;30.00;28.33;;;;;;;;4978303;28;45955;-64
2022/11/13 12:25:54;;;;;;;;;27.67;27.33;;;;;;;;4979155;28;45366;-64
2022/11/13 12:28:19;;;;;;;;;31.67;28.00;;;;;;;;4979075;28;45489;-64
2022/11/13 12:31:00;;;;;;;;;37.67;32.33;;;;;;;;4978621;28;45418;-64
2022/11/13 12:33:32;;;;;;;;;33.67;32.33;;;;;;;;4978929;28;45610;-64
2022/11/13 12:35:58;;;;;;;;;33.33;30.00;;;;;;;;4978974;28;45409;-63
2022/11/13 12:38:32;;;;;;;;;34.67;30.67;;;;;;;;4978870;28;45409;-63
2022/11/13 12:41:03;;;;;;;;;29.00;26.67;;;;;;;;4978695;28;46071;-63
2022/11/13 12:43:47;;;;;;;;;33.67;28.00;;;;;;;;4978863;28;45387;-63
2022/11/13 12:46:12;;;;;;;;;25.00;24.33;;;;;;;;4978773;28;45453;-63
2022/11/13 12:48:39;;;;;;;;;32.00;26.67;;;;;;;;4978218;28;45457;-64
2022/11/13 12:51:14;;;;;;;;;30.33;24.00;;;;;;;;4978649;28;47621;-63
2022/11/13 12:53:47;;;;;;;;;34.67;29.67;;;;;;;;4978194;28;45414;-63
2022/11/13 12:56:33;;;;;;;;;34.67;29.00;;;;;;;;4978665;28;45469;-63
2022/11/13 12:59:10;;;;;;;;;31.33;28.33;;;;;;;;4978150;28;45678;-63
2022/11/13 13:01:42;;;;;;;;;36.00;29.33;;;;;;;;4978261;28;45728;-63
2022/11/13 13:04:25;;;;;;;;;25.33;25.33;;;;;;;;4978315;28;45248;-63
2022/11/13 13:07:05;;;;;;;;;34.00;31.33;;;;;;;;4978619;28;45516;-63
2022/11/13 13:09:42;;;;;;;;;36.33;30.33;;;;;;;;4977883;28;45501;-62
2022/11/13 13:12:10;;;;;;;;;32.33;28.67;;;;;;;;4978083;28;46251;-63
2022/11/13 13:14:36;;;;;;;;;38.33;33.00;;;;;;;;4978092;28;45441;-63
2022/11/13 13:17:21;;;;;;;;;33.00;30.00;;;;;;;;4978424;28;45431;-63
2022/11/13 13:19:55;;;;;;;;;37.33;29.33;;;;;;;;4977998;28;45477;-63
2022/11/13 13:22:25;;;;;;;;;35.67;31.00;;;;;;;;4977995;28;45425;-63
2022/11/13 13:24:58;;;;;;;;;37.67;32.67;;;;;;;;4978103;28;45256;-63
2022/11/13 13:27:28;;;;;;;;;37.67;30.00;;;;;;;;4977841;28;45402;-64
2022/11/13 13:29:53;;;;;;;;;35.67;30.00;;;;;;;;4977677;28;45437;-63
2022/11/13 13:32:25;;;;;;;;;41.33;35.67;;;;;;;;4977942;28;45611;-63
2022/11/13 13:34:50;;;;;;;;;39.33;31.33;;;;;;;;4977749;28;45441;-63
2022/11/13 13:37:15;;;;;;;;;34.67;31.67;;;;;;;;4977830;28;45374;-63
2022/11/13 13:39:43;;;;;;;;;34.67;30.00;;;;;;;;4978267;28;45356;-63
2022/11/13 13:42:14;;;;;;;;;41.33;33.67;;;;;;;;4977863;28;46539;-63
2022/11/13 13:44:39;;;;;;;;;35.33;31.67;;;;;;;;4977619;28;45181;-63
2022/11/13 13:47:20;;;;;;;;;41.00;35.00;;;;;;;;4978107;28;45216;-63
2022/11/13 13:49:46;;;;;;;;;35.67;32.00;;;;;;;;4977696;28;45306;-63
2022/11/13 13:52:13;;;;;;;;;40.33;34.33;;;;;;;;4977464;28;46485;-63
2022/11/13 13:54:39;;;;;;;;;34.00;30.67;;;;;;;;4977882;28;45355;-63
2022/11/13 13:57:10;;;;;;;;;35.67;31.00;;;;;;;;4977616;28;45196;-63
2022/11/13 13:59:36;;;;;;;;;35.00;33.00;;;;;;;;4977865;28;45390;-63
2022/11/13 14:02:02;;;;;;;;;40.67;34.67;;;;;;;;4977040;28;46723;-64
2022/11/13 14:04:31;;;;;;;;;35.67;30.33;;;;;;;;4977445;28;45363;-65
2022/11/13 14:06:58;;;;;;;;;30.33;29.33;;;;;;;;4977497;28;45410;-65
2022/11/13 14:09:25;;;;;;;;;29.33;26.33;;;;;;;;4977649;28;45337;-65
2022/11/13 14:11:56;;;;;;;;;31.00;29.33;;;;;;;;4977399;28;46492;-62
2022/11/13 14:14:22;;;;;;;;;33.00;30.00;;;;;;;;4977448;28;45432;-63
2022/11/13 14:16:51;;;;;;;;;38.00;30.00;;;;;;;;4977142;28;45501;-65